Time;durP1;ratioP1;P1;durP2;ratioP2;P2;SDS_P1;SDS_P2;PMS_P1;PMS_P2;Temp;Humidity;BMP_temperature;BMP_pressure;BME280_temperature;BME280_humidity;BME280_pressure;Samples;Min_cycle;Max_cycle;Signal;HPM_P1;HPM_P2
2023/02/22 00:01:49;;;;;;;39.93;26.87;;;;;;;;;;4987647;28;20223;-85
2023/02/22 00:04:20;;;;;;;35.63;23.90;;;;;;;;;;4982661;28;20215;-87
2023/02/22 00:06:45;;;;;;;32.73;23.27;;;;;;;;;;4998961;28;20246;-85
2023/02/22 00:09:12;;;;;;;30.67;22.60;;;;;;;;;;4989661;28;20717;-87
2023/02/22 00:11:40;;;;;;;33.03;24.27;;;;;;;;;;4997852;28;20218;-85
2023/02/22 00:14:05;;;;;;;41.17;26.63;;;;;;;;;;4984413;28;20223;-87
2023/02/22 00:16:33;;;;;;;35.93;26.23;;;;;;;;;;4980255;28;20633;-87
2023/02/22 00:18:59;;;;;;;40.33;27.63;;;;;;;;;;4980419;28;20208;-86
2023/02/22 00:21:24;;;;;;;39.70;27.67;;;;;;;;;;4984048;28;20681;-83
2023/02/22 00:23:53;;;;;;;36.57;25.63;;;;;;;;;;4996646;28;20205;-84
2023/02/22 00:26:20;;;;;;;40.57;26.13;;;;;;;;;;4989599;28;20358;-85
2023/02/22 00:28:52;;;;;;;33.30;22.27;;;;;;;;;;4994925;28;20215;-86
2023/02/22 00:31:19;;;;;;;30.50;21.70;;;;;;;;;;4972317;28;20665;-86
2023/02/22 00:33:48;;;;;;;29.53;20.87;;;;;;;;;;5000574;28;20212;-84
2023/02/22 00:36:18;;;;;;;26.27;20.67;;;;;;;;;;4979007;28;20600;-84
2023/02/22 00:38:43;;;;;;;29.30;20.53;;;;;;;;;;4996029;28;20232;-86
2023/02/22 00:41:10;;;;;;;34.90;23.33;;;;;;;;;;4986064;28;20227;-84
2023/02/22 00:43:38;;;;;;;31.20;21.93;;;;;;;;;;4996659;28;20219;-84
2023/02/22 00:46:04;;;;;;;27.00;20.87;;;;;;;;;;4983871;28;20228;-85
2023/02/22 00:48:34;;;;;;;32.70;23.17;;;;;;;;;;4969675;28;20223;-86
2023/02/22 00:51:00;;;;;;;29.60;21.90;;;;;;;;;;4996973;28;20262;-84
2023/02/22 00:53:28;;;;;;;36.43;24.63;;;;;;;;;;4996679;28;20294;-85
2023/02/22 00:55:54;;;;;;;35.00;24.53;;;;;;;;;;4979926;28;20775;-85
2023/02/22 00:58:23;;;;;;;36.50;23.33;;;;;;;;;;4986135;28;20334;-84
2023/02/22 01:00:51;;;;;;;34.73;23.63;;;;;;;;;;4991861;28;20592;-85
2023/02/22 01:03:23;;;;;;;33.60;23.67;;;;;;;;;;4995573;28;20216;-84
2023/02/22 01:05:49;;;;;;;36.13;24.50;;;;;;;;;;4996180;28;21201;-85
2023/02/22 01:08:15;;;;;;;35.40;24.80;;;;;;;;;;4981034;28;20243;-84
2023/02/22 01:10:41;;;;;;;35.30;25.67;;;;;;;;;;4996176;28;20224;-84
2023/02/22 01:13:10;;;;;;;34.30;25.80;;;;;;;;;;4989679;28;20517;-84
2023/02/22 01:15:43;;;;;;;34.20;25.03;;;;;;;;;;4980574;28;20226;-84
2023/02/22 01:18:09;;;;;;;32.27;24.03;;;;;;;;;;4997890;28;20299;-87
2023/02/22 01:20:37;;;;;;;32.90;22.93;;;;;;;;;;4973018;28;20228;-84
2023/02/22 01:23:05;;;;;;;36.53;23.87;;;;;;;;;;4976969;28;20225;-85
2023/02/22 01:25:33;;;;;;;32.63;23.97;;;;;;;;;;5010574;28;20277;-84
2023/02/22 01:28:02;;;;;;;36.40;24.43;;;;;;;;;;4995646;28;20227;-86
2023/02/22 01:30:32;;;;;;;43.10;24.27;;;;;;;;;;4978711;28;20224;-84
2023/02/22 01:32:57;;;;;;;68.70;25.37;;;;;;;;;;4965022;28;20223;-85
2023/02/22 01:35:28;;;;;;;33.20;22.83;;;;;;;;;;4988293;28;20316;-86
2023/02/22 01:37:58;;;;;;;38.23;24.17;;;;;;;;;;5000331;28;20763;-85
2023/02/22 01:40:30;;;;;;;34.23;24.33;;;;;;;;;;4985822;28;20225;-85
2023/02/22 01:42:58;;;;;;;41.53;25.47;;;;;;;;;;4985261;28;20216;-85
2023/02/22 01:45:31;;;;;;;34.53;24.43;;;;;;;;;;4999322;28;20228;-85
2023/02/22 01:48:18;;;;;;;36.13;24.00;;;;;;;;;;4998657;28;20231;-86
2023/02/22 01:51:11;;;;;;;33.20;23.73;;;;;;;;;;5014154;28;20247;-84
2023/02/22 01:53:42;;;;;;;36.83;25.07;;;;;;;;;;5021647;28;20217;-84
2023/02/22 01:56:10;;;;;;;36.77;26.77;;;;;;;;;;4999517;28;20212;-84
2023/02/22 01:58:36;;;;;;;48.87;25.80;;;;;;;;;;5002232;28;20748;-85
2023/02/22 02:01:04;;;;;;;42.10;25.30;;;;;;;;;;4967190;28;20223;-85
2023/02/22 02:03:35;;;;;;;31.30;23.53;;;;;;;;;;4970542;28;20243;-85
2023/02/22 02:06:03;;;;;;;36.10;25.23;;;;;;;;;;4996596;28;20223;-85
2023/02/22 02:08:53;;;;;;;35.73;25.07;;;;;;;;;;4981235;28;20312;-86
2023/02/22 02:11:24;;;;;;;36.80;24.23;;;;;;;;;;5014368;28;20231;-83
2023/02/22 02:13:51;;;;;;;66.30;26.97;;;;;;;;;;5014689;28;20231;-84
2023/02/22 02:16:16;;;;;;;33.03;22.97;;;;;;;;;;4987277;28;20239;-84
2023/02/22 02:18:43;;;;;;;38.00;25.87;;;;;;;;;;4987209;28;20212;-85
2023/02/22 02:21:48;;;;;;;35.27;25.83;;;;;;;;;;4980016;28;20227;-85
2023/02/22 02:24:31;;;;;;;36.60;23.57;;;;;;;;;;5029382;28;20358;-84
2023/02/22 02:27:08;;;;;;;35.77;24.10;;;;;;;;;;4997733;28;20224;-85
2023/02/22 02:29:52;;;;;;;33.30;25.73;;;;;;;;;;5015371;28;20668;-85
2023/02/22 02:32:34;;;;;;;34.40;25.00;;;;;;;;;;5021918;28;20941;-85
2023/02/22 02:35:12;;;;;;;32.03;23.63;;;;;;;;;;4997306;28;20216;-85
2023/02/22 02:38:00;;;;;;;31.70;24.60;;;;;;;;;;4996315;28;20215;-85
2023/02/22 02:40:38;;;;;;;42.40;26.10;;;;;;;;;;5024657;28;20636;-85
2023/02/22 02:43:03;;;;;;;35.93;24.60;;;;;;;;;;4990852;28;20632;-85
2023/02/22 02:45:46;;;;;;;35.77;25.03;;;;;;;;;;5013463;28;20219;-85
2023/02/22 02:48:14;;;;;;;37.43;25.13;;;;;;;;;;4981577;28;20235;-85
2023/02/22 02:50:43;;;;;;;33.27;24.07;;;;;;;;;;4999346;28;20215;-86
2023/02/22 02:53:08;;;;;;;41.83;26.40;;;;;;;;;;4997289;28;20319;-87
2023/02/22 02:55:35;;;;;;;34.80;24.87;;;;;;;;;;4989609;28;20369;-85
2023/02/22 02:58:04;;;;;;;36.43;25.17;;;;;;;;;;4982226;28;20220;-86
2023/02/22 03:00:37;;;;;;;39.43;25.40;;;;;;;;;;5012975;28;20726;-86
2023/02/22 03:03:22;;;;;;;36.73;25.20;;;;;;;;;;4996061;28;20227;-85
2023/02/22 03:05:56;;;;;;;36.60;25.87;;;;;;;;;;5026758;28;20227;-86
2023/02/22 03:08:55;;;;;;;38.67;24.83;;;;;;;;;;5004861;28;20318;-85
2023/02/22 03:11:27;;;;;;;32.17;24.33;;;;;;;;;;4995370;28;20275;-86
2023/02/22 03:14:11;;;;;;;45.80;24.97;;;;;;;;;;5011564;28;20217;-85
2023/02/22 03:16:57;;;;;;;31.83;24.20;;;;;;;;;;4982559;28;20223;-85
2023/02/22 03:19:47;;;;;;;35.43;24.83;;;;;;;;;;5012941;28;20280;-84
2023/02/22 03:22:23;;;;;;;35.07;25.57;;;;;;;;;;5000516;28;20672;-85
2023/02/22 03:25:10;;;;;;;38.17;26.30;;;;;;;;;;5000200;28;20227;-86
2023/02/22 03:27:54;;;;;;;36.20;25.40;;;;;;;;;;4983008;28;20298;-88
2023/02/22 03:30:32;;;;;;;36.60;24.87;;;;;;;;;;4997287;28;20216;-87
2023/02/22 03:33:07;;;;;;;35.13;25.73;;;;;;;;;;5003222;28;20221;-87
2023/02/22 03:35:36;;;;;;;35.67;25.70;;;;;;;;;;4970886;28;20303;-86
2023/02/22 03:38:03;;;;;;;38.57;26.30;;;;;;;;;;5001751;28;20247;-86
2023/02/22 03:40:34;;;;;;;31.50;24.20;;;;;;;;;;4984530;28;20216;-86
2023/02/22 03:43:17;;;;;;;35.83;25.37;;;;;;;;;;5000467;28;20212;-86
2023/02/22 03:45:48;;;;;;;35.87;24.90;;;;;;;;;;4992130;28;20216;-86
2023/02/22 03:49:08;;;;;;;33.90;25.57;;;;;;;;;;5015274;28;20311;-86
2023/02/22 03:51:39;;;;;;;36.53;25.60;;;;;;;;;;5026870;28;20216;-86
2023/02/22 03:54:15;;;;;;;38.80;26.40;;;;;;;;;;5029644;28;20217;-87
2023/02/22 03:57:14;;;;;;;38.30;25.73;;;;;;;;;;5006925;28;20596;-86
2023/02/22 03:59:41;;;;;;;34.90;25.67;;;;;;;;;;5003421;28;20215;-87
2023/02/22 04:02:07;;;;;;;40.13;27.57;;;;;;;;;;4990167;28;20211;-87
2023/02/22 04:04:32;;;;;;;36.73;26.20;;;;;;;;;;5002378;28;20238;-86
2023/02/22 04:06:58;;;;;;;34.97;26.03;;;;;;;;;;5001077;28;20212;-87
2023/02/22 04:09:29;;;;;;;37.43;26.90;;;;;;;;;;5002734;28;20216;-87
2023/02/22 04:11:57;;;;;;;38.20;28.03;;;;;;;;;;5018616;28;20216;-86
2023/02/22 04:14:24;;;;;;;38.23;27.53;;;;;;;;;;4989924;28;20216;-87
2023/02/22 04:16:51;;;;;;;36.27;26.50;;;;;;;;;;5005475;28;20242;-87
2023/02/22 04:19:19;;;;;;;37.93;27.23;;;;;;;;;;5003156;28;20223;-87
2023/02/22 04:21:50;;;;;;;32.90;24.60;;;;;;;;;;5014906;28;20216;-86
2023/02/22 04:24:20;;;;;;;37.03;27.63;;;;;;;;;;5000958;28;20304;-86
2023/02/22 04:26:49;;;;;;;40.20;28.80;;;;;;;;;;4992699;28;20228;-86
2023/02/22 04:29:15;;;;;;;42.03;28.30;;;;;;;;;;5003894;28;20216;-87
2023/02/22 04:31:43;;;;;;;40.27;28.10;;;;;;;;;;5018941;28;20212;-86
2023/02/22 04:34:09;;;;;;;36.03;27.00;;;;;;;;;;4979765;28;20216;-87
2023/02/22 04:36:37;;;;;;;36.10;26.03;;;;;;;;;;4995751;28;20215;-87
2023/02/22 04:39:03;;;;;;;42.80;28.30;;;;;;;;;;4974801;28;20220;-85
2023/02/22 04:41:30;;;;;;;39.57;28.13;;;;;;;;;;5008590;28;20220;-86
2023/02/22 04:43:58;;;;;;;39.07;27.43;;;;;;;;;;4991930;28;20745;-85
2023/02/22 04:46:28;;;;;;;37.03;26.97;;;;;;;;;;4968844;28;20236;-83
2023/02/22 04:48:58;;;;;;;37.87;27.63;;;;;;;;;;4982464;28;20220;-82
2023/02/22 04:51:32;;;;;;;42.83;27.13;;;;;;;;;;4981858;28;20248;-83
2023/02/22 04:54:03;;;;;;;35.77;26.57;;;;;;;;;;4983186;28;20223;-82
2023/02/22 04:56:30;;;;;;;40.17;27.23;;;;;;;;;;4982389;28;20224;-83
2023/02/22 04:58:58;;;;;;;39.77;26.77;;;;;;;;;;5014118;28;20725;-83
2023/02/22 05:01:24;;;;;;;41.20;28.43;;;;;;;;;;5004078;28;20216;-83
2023/02/22 05:03:52;;;;;;;39.70;28.53;;;;;;;;;;4998802;28;20232;-83
2023/02/22 05:06:17;;;;;;;39.40;27.50;;;;;;;;;;5013050;28;20251;-83
2023/02/22 05:08:43;;;;;;;38.80;26.90;;;;;;;;;;4964997;28;20243;-83
2023/02/22 05:11:10;;;;;;;41.03;26.87;;;;;;;;;;4989925;28;20227;-83
2023/02/22 05:13:36;;;;;;;39.47;26.60;;;;;;;;;;4997755;28;20290;-81
2023/02/22 05:16:06;;;;;;;41.63;27.73;;;;;;;;;;4980070;28;20219;-82
2023/02/22 05:18:33;;;;;;;38.47;27.43;;;;;;;;;;4994968;28;20243;-82
2023/02/22 05:20:59;;;;;;;37.03;25.77;;;;;;;;;;4999045;28;20208;-84
2023/02/22 05:23:24;;;;;;;44.30;27.23;;;;;;;;;;5014051;28;20223;-83
2023/02/22 05:25:50;;;;;;;42.67;27.37;;;;;;;;;;5017106;28;20223;-82
2023/02/22 05:28:15;;;;;;;38.57;26.23;;;;;;;;;;5011955;28;20235;-81
2023/02/22 05:30:41;;;;;;;40.67;27.93;;;;;;;;;;5002302;28;20217;-82
2023/02/22 05:33:07;;;;;;;40.83;27.60;;;;;;;;;;5001301;28;20223;-81
2023/02/22 05:35:33;;;;;;;44.23;29.53;;;;;;;;;;4997879;28;20223;-83
2023/02/22 05:38:01;;;;;;;40.17;27.63;;;;;;;;;;5002408;28;20224;-83
2023/02/22 05:40:30;;;;;;;43.83;27.80;;;;;;;;;;4987098;28;20223;-83
2023/02/22 05:42:56;;;;;;;41.53;28.67;;;;;;;;;;4984741;28;20232;-83
2023/02/22 05:45:22;;;;;;;44.63;28.57;;;;;;;;;;5018116;28;20224;-83
2023/02/22 05:47:48;;;;;;;44.73;29.03;;;;;;;;;;5003102;28;20247;-82
2023/02/22 05:50:14;;;;;;;42.37;27.03;;;;;;;;;;4987114;28;20228;-83
2023/02/22 05:52:40;;;;;;;46.40;28.27;;;;;;;;;;5002270;28;20766;-84
2023/02/22 05:55:06;;;;;;;42.13;28.27;;;;;;;;;;4966243;28;20216;-82
2023/02/22 05:57:31;;;;;;;43.37;27.27;;;;;;;;;;4997998;28;20232;-84
2023/02/22 06:00:03;;;;;;;48.10;28.57;;;;;;;;;;4998980;28;20638;-83
2023/02/22 06:02:38;;;;;;;45.73;27.13;;;;;;;;;;5001995;28;20220;-81
2023/02/22 06:05:06;;;;;;;46.40;27.70;;;;;;;;;;5009712;28;20650;-82
2023/02/22 06:07:34;;;;;;;40.67;26.70;;;;;;;;;;4983808;28;20279;-83
2023/02/22 06:10:02;;;;;;;41.53;27.13;;;;;;;;;;4999636;28;20239;-82
2023/02/22 06:12:27;;;;;;;47.60;28.47;;;;;;;;;;4968551;28;20232;-82
2023/02/22 06:14:53;;;;;;;45.10;27.77;;;;;;;;;;4984006;28;20224;-84
2023/02/22 06:17:18;;;;;;;44.23;27.60;;;;;;;;;;4999109;28;20224;-83
2023/02/22 06:19:44;;;;;;;44.70;27.60;;;;;;;;;;4987192;28;20224;-80
2023/02/22 06:22:17;;;;;;;41.67;25.47;;;;;;;;;;4987159;28;20271;-84
2023/02/22 06:24:43;;;;;;;45.30;26.83;;;;;;;;;;5000186;28;20227;-82
2023/02/22 06:27:08;;;;;;;42.60;27.33;;;;;;;;;;5020389;28;20242;-82
2023/02/22 06:29:34;;;;;;;48.03;27.60;;;;;;;;;;4993116;28;20235;-81
2023/02/22 06:32:04;;;;;;;49.03;26.97;;;;;;;;;;5001703;28;20224;-82
2023/02/22 06:34:30;;;;;;;45.90;26.33;;;;;;;;;;4985522;28;20224;-84
2023/02/22 06:36:59;;;;;;;49.23;26.60;;;;;;;;;;5000044;28;20226;-84
2023/02/22 06:39:24;;;;;;;49.33;29.50;;;;;;;;;;4994097;28;20230;-84
2023/02/22 06:41:51;;;;;;;51.10;27.53;;;;;;;;;;4989786;28;20220;-83
2023/02/22 06:44:18;;;;;;;47.83;28.73;;;;;;;;;;4968047;28;20704;-84
2023/02/22 06:46:49;;;;;;;48.63;27.87;;;;;;;;;;4984342;28;20228;-81
2023/02/22 06:49:15;;;;;;;52.70;26.70;;;;;;;;;;5006175;28;20296;-83
2023/02/22 06:51:40;;;;;;;46.10;26.83;;;;;;;;;;4997779;28;20250;-84
2023/02/22 06:54:09;;;;;;;49.03;27.33;;;;;;;;;;5000635;28;20231;-82
2023/02/22 06:56:39;;;;;;;55.87;29.47;;;;;;;;;;5000011;28;20286;-84
2023/02/22 06:59:08;;;;;;;49.37;28.83;;;;;;;;;;4996421;28;20927;-84
2023/02/22 07:01:33;;;;;;;59.27;29.63;;;;;;;;;;4999719;28;20767;-82
2023/02/22 07:03:59;;;;;;;51.70;27.40;;;;;;;;;;5006493;28;20224;-83
2023/02/22 07:06:27;;;;;;;59.60;29.77;;;;;;;;;;4982154;28;20224;-83
2023/02/22 07:08:53;;;;;;;54.87;28.57;;;;;;;;;;5005199;28;20247;-82
2023/02/22 07:11:21;;;;;;;62.93;30.53;;;;;;;;;;4984600;28;20227;-82
2023/02/22 07:13:47;;;;;;;59.47;30.77;;;;;;;;;;5002563;28;20633;-83
2023/02/22 07:16:13;;;;;;;61.47;29.40;;;;;;;;;;4981137;28;20235;-81
2023/02/22 07:18:39;;;;;;;61.13;29.83;;;;;;;;;;4966200;28;20303;-82
2023/02/22 07:21:04;;;;;;;59.50;30.63;;;;;;;;;;5012922;28;20327;-82
2023/02/22 07:23:30;;;;;;;73.60;32.63;;;;;;;;;;4998990;28;20295;-82
2023/02/22 07:26:00;;;;;;;66.53;32.33;;;;;;;;;;5014500;28;20545;-81
2023/02/22 07:28:26;;;;;;;79.33;45.37;;;;;;;;;;4990719;28;20977;-84
2023/02/22 07:30:54;;;;;;;63.50;32.07;;;;;;;;;;4997494;28;20223;-81
2023/02/22 07:33:19;;;;;;;70.47;32.23;;;;;;;;;;4986625;28;20243;-81
2023/02/22 07:35:48;;;;;;;69.13;31.03;;;;;;;;;;4984988;28;20228;-86
2023/02/22 07:38:15;;;;;;;70.80;32.00;;;;;;;;;;4989678;28;20242;-84
2023/02/22 07:40:43;;;;;;;69.50;30.30;;;;;;;;;;4985057;28;20228;-84
2023/02/22 07:43:12;;;;;;;64.90;29.83;;;;;;;;;;4984349;28;20244;-81
2023/02/22 07:45:37;;;;;;;62.43;30.30;;;;;;;;;;5027563;28;20268;-84
2023/02/22 07:48:05;;;;;;;62.20;30.90;;;;;;;;;;4984379;28;20224;-84
2023/02/22 07:50:33;;;;;;;57.13;28.03;;;;;;;;;;4999988;28;20220;-85
2023/02/22 07:53:03;;;;;;;57.90;29.73;;;;;;;;;;4985443;28;20219;-85
2023/02/22 07:55:31;;;;;;;58.50;28.73;;;;;;;;;;4980183;28;20224;-85
2023/02/22 07:57:58;;;;;;;53.83;28.30;;;;;;;;;;5015543;28;20216;-83
2023/02/22 08:00:28;;;;;;;58.93;28.70;;;;;;;;;;4990955;28;20250;-83
2023/02/22 08:02:53;;;;;;;58.27;30.03;;;;;;;;;;5013539;28;20227;-83
2023/02/22 08:05:20;;;;;;;51.17;28.70;;;;;;;;;;4979655;28;20220;-82
2023/02/22 08:07:46;;;;;;;58.60;30.10;;;;;;;;;;5006774;28;20217;-84
2023/02/22 08:10:14;;;;;;;59.07;29.77;;;;;;;;;;5015077;28;20216;-83
2023/02/22 08:12:39;;;;;;;57.23;29.10;;;;;;;;;;4980227;28;20238;-85
2023/02/22 08:15:06;;;;;;;62.03;29.50;;;;;;;;;;4972921;28;20308;-84
2023/02/22 08:17:34;;;;;;;59.33;30.13;;;;;;;;;;4981282;28;20464;-85
2023/02/22 08:20:00;;;;;;;58.57;28.37;;;;;;;;;;5014943;28;20216;-84
2023/02/22 08:22:27;;;;;;;62.50;29.47;;;;;;;;;;5006674;28;20230;-83
2023/02/22 08:24:53;;;;;;;54.93;29.00;;;;;;;;;;4975019;28;20350;-83
2023/02/22 08:27:25;;;;;;;56.83;29.53;;;;;;;;;;4993094;28;20216;-84
2023/02/22 08:29:53;;;;;;;53.83;27.87;;;;;;;;;;5003299;28;20224;-85
2023/02/22 08:32:20;;;;;;;51.93;28.63;;;;;;;;;;4986628;28;20224;-83
2023/02/22 08:34:48;;;;;;;53.40;28.23;;;;;;;;;;5004005;28;20220;-84
2023/02/22 08:37:14;;;;;;;53.53;26.77;;;;;;;;;;5003344;28;20308;-85
2023/02/22 08:39:45;;;;;;;47.90;26.97;;;;;;;;;;4988647;28;20565;-85
2023/02/22 08:42:12;;;;;;;49.43;27.60;;;;;;;;;;4987412;28;20232;-85
2023/02/22 08:44:41;;;;;;;43.33;26.43;;;;;;;;;;4988125;28;20204;-83
2023/02/22 08:47:06;;;;;;;45.10;25.33;;;;;;;;;;5016032;28;20757;-84
2023/02/22 08:49:32;;;;;;;43.37;25.30;;;;;;;;;;4994972;28;20231;-85
2023/02/22 08:51:59;;;;;;;39.97;24.73;;;;;;;;;;5008712;28;20224;-84
2023/02/22 08:54:25;;;;;;;33.53;23.30;;;;;;;;;;4997514;28;20228;-84
2023/02/22 08:56:53;;;;;;;33.53;22.83;;;;;;;;;;4996048;28;20216;-82
2023/02/22 08:59:26;;;;;;;36.83;23.10;;;;;;;;;;4990096;28;20212;-84
2023/02/22 09:01:51;;;;;;;34.50;21.77;;;;;;;;;;4992556;28;20231;-82
2023/02/22 09:04:17;;;;;;;34.27;22.80;;;;;;;;;;4998414;28;20239;-81
2023/02/22 09:06:47;;;;;;;35.00;21.27;;;;;;;;;;5013125;28;20700;-83
2023/02/22 09:09:12;;;;;;;28.73;21.47;;;;;;;;;;4968234;28;20220;-81
2023/02/22 09:11:40;;;;;;;34.27;21.13;;;;;;;;;;5014298;28;20227;-82
2023/02/22 09:14:06;;;;;;;28.37;19.80;;;;;;;;;;5025649;28;20216;-80
2023/02/22 09:16:32;;;;;;;32.17;20.37;;;;;;;;;;4982615;28;20240;-84
2023/02/22 09:19:00;;;;;;;29.97;21.07;;;;;;;;;;4982194;28;20235;-83
2023/02/22 09:21:25;;;;;;;31.30;20.10;;;;;;;;;;4988949;28;20879;-81
2023/02/22 09:23:53;;;;;;;25.70;19.77;;;;;;;;;;5016306;28;20216;-83
2023/02/22 09:26:19;;;;;;;28.43;20.00;;;;;;;;;;4982506;28;20223;-82
2023/02/22 09:28:47;;;;;;;27.37;20.30;;;;;;;;;;4999791;28;20306;-83
2023/02/22 09:31:12;;;;;;;26.67;18.77;;;;;;;;;;4995402;28;20811;-83
2023/02/22 09:33:39;;;;;;;27.70;18.57;;;;;;;;;;4989684;28;20228;-82
2023/02/22 09:36:05;;;;;;;29.33;20.13;;;;;;;;;;4981007;28;20827;-82
2023/02/22 09:38:31;;;;;;;29.37;20.03;;;;;;;;;;4989411;28;20228;-81
2023/02/22 09:41:11;;;;;;;29.00;20.10;;;;;;;;;;4996906;28;20243;-81
2023/02/22 09:43:54;;;;;;;26.67;19.60;;;;;;;;;;5014789;28;20318;-82
2023/02/22 09:46:29;;;;;;;27.47;19.17;;;;;;;;;;5013704;28;20232;-84
2023/02/22 09:48:56;;;;;;;28.57;20.10;;;;;;;;;;5014184;28;20227;-82
2023/02/22 09:51:26;;;;;;;30.70;20.30;;;;;;;;;;5032320;28;20250;-81
2023/02/22 09:53:55;;;;;;;27.53;19.83;;;;;;;;;;4999627;28;20230;-82
2023/02/22 09:56:20;;;;;;;22.77;17.13;;;;;;;;;;5001353;28;20319;-82
2023/02/22 09:58:51;;;;;;;25.40;17.80;;;;;;;;;;5002912;28;20219;-83
2023/02/22 10:01:42;;;;;;;24.37;16.93;;;;;;;;;;4985831;28;20212;-82
2023/02/22 10:04:29;;;;;;;23.57;17.00;;;;;;;;;;4981738;28;20561;-83
2023/02/22 10:06:56;;;;;;;21.37;16.03;;;;;;;;;;5003996;28;20259;-83
2023/02/22 10:09:26;;;;;;;19.47;15.13;;;;;;;;;;5029373;28;20225;-84
2023/02/22 10:12:00;;;;;;;23.53;16.17;;;;;;;;;;4983418;28;20224;-83
2023/02/22 10:14:50;;;;;;;19.33;13.97;;;;;;;;;;4998764;28;20239;-82
2023/02/22 10:17:39;;;;;;;20.23;14.17;;;;;;;;;;5032890;28;20235;-82
2023/02/22 10:20:22;;;;;;;19.33;13.37;;;;;;;;;;5004357;28;20228;-82
2023/02/22 10:23:10;;;;;;;16.63;12.13;;;;;;;;;;5013464;28;20215;-82
2023/02/22 10:25:36;;;;;;;16.67;11.93;;;;;;;;;;5004568;28;20231;-81
2023/02/22 10:28:08;;;;;;;18.13;12.80;;;;;;;;;;5015989;28;20219;-79
2023/02/22 10:30:40;;;;;;;15.57;11.50;;;;;;;;;;5037231;28;20246;-83
2023/02/22 10:33:16;;;;;;;15.33;11.20;;;;;;;;;;5011908;28;20780;-80
2023/02/22 10:35:41;;;;;;;16.23;10.90;;;;;;;;;;5023351;28;20227;-83
2023/02/22 10:38:27;;;;;;;13.33;10.70;;;;;;;;;;5006651;28;20323;-85
2023/02/22 10:41:04;;;;;;;12.53;10.50;;;;;;;;;;5009096;28;20216;-83
2023/02/22 10:43:30;;;;;;;14.10;10.40;;;;;;;;;;5025937;28;20326;-82
2023/02/22 10:45:59;;;;;;;15.10;10.93;;;;;;;;;;5010792;28;20224;-82
2023/02/22 10:48:25;;;;;;;13.33;10.30;;;;;;;;;;5026548;28;20231;-81
2023/02/22 10:50:52;;;;;;;12.37;9.87;;;;;;;;;;5014469;28;20224;-82
2023/02/22 10:53:17;;;;;;;13.93;10.63;;;;;;;;;;4987487;28;20227;-82
2023/02/22 10:56:07;;;;;;;12.23;9.43;;;;;;;;;;5004036;28;20223;-82
2023/02/22 10:58:41;;;;;;;15.47;9.47;;;;;;;;;;5018065;28;20974;-82
2023/02/22 11:01:31;;;;;;;13.00;9.00;;;;;;;;;;4996667;28;20224;-82
2023/02/22 11:04:11;;;;;;;14.40;9.77;;;;;;;;;;5034023;28;20307;-81
2023/02/22 11:06:38;;;;;;;10.30;8.43;;;;;;;;;;5006789;28;20262;-81
2023/02/22 11:09:14;;;;;;;10.37;8.80;;;;;;;;;;4997037;28;20224;-80
2023/02/22 11:11:42;;;;;;;9.70;8.37;;;;;;;;;;5023866;28;21091;-82
2023/02/22 11:14:09;;;;;;;11.27;9.57;;;;;;;;;;5021593;28;20763;-81
2023/02/22 11:16:48;;;;;;;13.97;8.83;;;;;;;;;;4988628;28;20247;-81
2023/02/22 11:19:19;;;;;;;10.63;8.83;;;;;;;;;;5007547;28;20227;-80
2023/02/22 11:21:47;;;;;;;9.73;8.70;;;;;;;;;;5008106;28;20224;-81
2023/02/22 11:24:15;;;;;;;10.20;9.10;;;;;;;;;;5026576;28;20212;-81
2023/02/22 11:26:42;;;;;;;10.67;8.60;;;;;;;;;;5013661;28;20223;-82
2023/02/22 11:29:30;;;;;;;9.93;7.97;;;;;;;;;;5013819;28;20228;-81
2023/02/22 11:32:23;;;;;;;11.60;8.40;;;;;;;;;;4996023;28;20212;-81
2023/02/22 11:34:51;;;;;;;10.83;8.23;;;;;;;;;;5011521;28;20207;-82
2023/02/22 11:37:28;;;;;;;9.60;8.60;;;;;;;;;;5037454;28;20219;-81
2023/02/22 11:40:03;;;;;;;10.03;8.63;;;;;;;;;;5008887;28;20338;-81
2023/02/22 11:42:29;;;;;;;11.43;8.83;;;;;;;;;;5037652;28;20227;-80
2023/02/22 11:45:07;;;;;;;9.70;8.07;;;;;;;;;;4986100;28;20537;-83
2023/02/22 11:47:34;;;;;;;10.30;8.10;;;;;;;;;;5019137;28;20242;-81
2023/02/22 11:50:01;;;;;;;8.77;7.93;;;;;;;;;;4986799;28;20283;-81
2023/02/22 11:52:33;;;;;;;10.53;8.70;;;;;;;;;;5002422;28;20231;-81
2023/02/22 11:55:09;;;;;;;8.87;7.83;;;;;;;;;;4993177;28;20270;-80
2023/02/22 11:58:03;;;;;;;11.67;8.23;;;;;;;;;;5017004;28;20725;-81
2023/02/22 12:00:57;;;;;;;11.70;8.00;;;;;;;;;;5028368;28;20219;-80
2023/02/22 12:03:28;;;;;;;10.97;8.57;;;;;;;;;;5021209;28;20228;-82
2023/02/22 12:05:59;;;;;;;11.30;8.80;;;;;;;;;;5037197;28;20715;-81
2023/02/22 12:08:45;;;;;;;10.33;8.67;;;;;;;;;;5013316;28;20661;-81
2023/02/22 12:11:11;;;;;;;11.90;8.60;;;;;;;;;;5031346;28;20235;-81
2023/02/22 12:13:49;;;;;;;9.23;8.17;;;;;;;;;;5018856;28;20223;-80
2023/02/22 12:16:45;;;;;;;10.47;8.13;;;;;;;;;;5013584;28;20337;-82
2023/02/22 12:19:30;;;;;;;11.27;8.60;;;;;;;;;;5002985;28;20220;-81
2023/02/22 12:22:24;;;;;;;9.43;8.27;;;;;;;;;;5001691;28;20307;-81
2023/02/22 12:25:02;;;;;;;10.30;7.67;;;;;;;;;;5001252;28;20251;-81
2023/02/22 12:27:34;;;;;;;8.57;7.50;;;;;;;;;;5003242;28;20250;-83
2023/02/22 12:29:59;;;;;;;12.37;8.40;;;;;;;;;;4999671;28;20669;-81
2023/02/22 12:32:40;;;;;;;10.83;8.13;;;;;;;;;;5034467;28;20231;-83
2023/02/22 12:35:24;;;;;;;9.33;8.13;;;;;;;;;;5005377;28;20232;-82
2023/02/22 12:37:57;;;;;;;10.13;8.07;;;;;;;;;;5027474;28;20223;-80
2023/02/22 12:40:48;;;;;;;10.10;7.93;;;;;;;;;;5016846;28;20239;-83
2023/02/22 12:43:19;;;;;;;10.43;7.93;;;;;;;;;;5007019;28;20311;-83
2023/02/22 12:46:08;;;;;;;9.83;7.70;;;;;;;;;;5000678;28;20228;-83
2023/02/22 12:48:36;;;;;;;9.93;8.13;;;;;;;;;;5001083;28;20228;-80
2023/02/22 12:51:18;;;;;;;10.07;8.87;;;;;;;;;;5016022;28;20236;-84
2023/02/22 12:53:54;;;;;;;10.43;7.67;;;;;;;;;;4989981;28;20224;-82
2023/02/22 12:56:33;;;;;;;8.63;7.80;;;;;;;;;;5022953;28;20216;-82
2023/02/22 12:59:31;;;;;;;8.20;7.40;;;;;;;;;;5031532;28;20223;-79
2023/02/22 13:02:21;;;;;;;8.87;7.80;;;;;;;;;;5009301;28;20258;-82
2023/02/22 13:04:49;;;;;;;9.63;7.07;;;;;;;;;;5008177;28;20262;-81
2023/02/22 13:07:55;;;;;;;9.07;8.03;;;;;;;;;;5005000;28;20208;-81
2023/02/22 13:10:45;;;;;;;11.33;8.27;;;;;;;;;;4994094;28;20247;-81
2023/02/22 13:13:14;;;;;;;10.27;7.80;;;;;;;;;;5009210;28;20263;-80
2023/02/22 13:15:56;;;;;;;9.20;7.70;;;;;;;;;;5023153;28;20231;-82
2023/02/22 13:18:32;;;;;;;9.63;7.47;;;;;;;;;;5007233;28;20215;-82
2023/02/22 13:21:14;;;;;;;8.17;7.37;;;;;;;;;;5014726;28;20223;-81
2023/02/22 13:23:52;;;;;;;8.43;7.30;;;;;;;;;;5024568;28;20227;-83
2023/02/22 13:26:29;;;;;;;8.13;7.33;;;;;;;;;;5027849;28;20236;-82
2023/02/22 13:29:10;;;;;;;8.67;6.47;;;;;;;;;;5026451;28;20215;-83
2023/02/22 13:31:38;;;;;;;8.02;7.18;;;;;;;;;;5043346;28;20580;-80
2023/02/22 13:34:16;;;;;;;7.97;7.17;;;;;;;;;;5013109;28;20775;-82
2023/02/22 13:36:52;;;;;;;10.07;7.93;;;;;;;;;;5043954;28;20227;-81
2023/02/22 13:39:36;;;;;;;8.87;7.13;;;;;;;;;;5025839;28;20227;-81
2023/02/22 13:42:21;;;;;;;7.77;6.63;;;;;;;;;;5015091;28;20227;-80
2023/02/22 13:45:06;;;;;;;8.87;6.87;;;;;;;;;;5041691;28;20311;-81
2023/02/22 13:48:00;;;;;;;7.50;6.65;;;;;;;;;;5022999;28;20224;-79
2023/02/22 13:50:31;;;;;;;8.00;6.57;;;;;;;;;;5011442;28;20246;-81
2023/02/22 13:52:59;;;;;;;8.23;7.27;;;;;;;;;;5034595;28;20250;-81
2023/02/22 13:55:28;;;;;;;9.07;7.50;;;;;;;;;;5008238;28;20243;-81
2023/02/22 13:58:05;;;;;;;7.73;6.93;;;;;;;;;;5010933;28;20229;-80
2023/02/22 14:00:44;;;;;;;7.27;6.57;;;;;;;;;;4989764;28;20227;-82
2023/02/22 14:03:12;;;;;;;9.27;7.50;;;;;;;;;;5011986;28;20236;-81
2023/02/22 14:05:38;;;;;;;7.77;6.97;;;;;;;;;;5013135;28;20227;-80
2023/02/22 14:08:04;;;;;;;7.30;6.60;;;;;;;;;;5030433;28;20240;-82
2023/02/22 14:10:36;;;;;;;8.23;6.82;;;;;;;;;;5013515;28;20330;-82
2023/02/22 14:13:06;;;;;;;9.27;7.37;;;;;;;;;;5027926;28;20594;-81
2023/02/22 14:15:32;;;;;;;8.67;7.23;;;;;;;;;;4988781;28;20212;-81
2023/02/22 14:18:04;;;;;;;8.00;7.10;;;;;;;;;;5005092;28;20216;-82
2023/02/22 14:20:35;;;;;;;8.10;7.03;;;;;;;;;;5007734;28;20223;-82
2023/02/22 14:23:26;;;;;;;7.97;6.97;;;;;;;;;;5012732;28;20248;-82
2023/02/22 14:26:07;;;;;;;7.70;6.80;;;;;;;;;;5036788;28;20232;-82
2023/02/22 14:28:37;;;;;;;8.17;6.40;;;;;;;;;;4987488;28;20347;-82
2023/02/22 14:31:13;;;;;;;8.10;7.27;;;;;;;;;;5005286;28;20220;-82
2023/02/22 14:33:49;;;;;;;7.57;6.63;;;;;;;;;;5025113;28;20226;-82
2023/02/22 14:36:17;;;;;;;7.50;6.55;;;;;;;;;;5006286;28;20223;-81
2023/02/22 14:39:06;;;;;;;8.47;6.60;;;;;;;;;;4992621;28;20254;-80
2023/02/22 14:41:32;;;;;;;7.27;6.57;;;;;;;;;;5012101;28;20307;-82
2023/02/22 14:44:00;;;;;;;7.93;7.23;;;;;;;;;;5011629;28;20370;-80
2023/02/22 14:46:28;;;;;;;7.27;6.57;;;;;;;;;;5020938;28;20240;-81
2023/02/22 14:48:59;;;;;;;7.60;6.80;;;;;;;;;;5021739;28;20216;-83
2023/02/22 14:51:27;;;;;;;8.07;6.60;;;;;;;;;;5006668;28;20331;-83